Syndicate, Indiana
Current Conditions -  °F | °C
As of 2:15 PM on Friday 28 Nov 2014 (Local Time) from KPRG Reporting Station
Clear Clear  
Wind Chill: 26°   Ceiling: Unl
Heat Index: 37°   Visibility: 7mi
Dew Point: 31°   Wind: 20mph
Humidity: 78%   Direction: 170°S
Pressure: 30.11"   Gusts: 26mph
Location:  39.6513°N, 87.4607°W
Report Text: KPRG 281915Z AUTO 17017G23KT 7SM CLR 03/M01 A3011 RMK AO2 T00261008
Loading
Personal Weather Stations






























Interactive Weather Map New forecast layout! Learn more

10-Day Weather Forecast

Advertisements
Track Severe Weather on mobile